createdAt,value
2019-03-04T00:00:46.119Z,10.60
2019-03-04T00:03:51.629Z,10.50
2019-03-04T00:06:55.945Z,10.60
2019-03-04T00:10:00.350Z,10.60
2019-03-04T00:13:06.046Z,10.50
2019-03-04T00:16:10.357Z,10.60
2019-03-04T00:19:16.247Z,10.60
2019-03-04T00:22:20.619Z,10.50
2019-03-04T00:25:24.837Z,10.50
2019-03-04T00:28:29.189Z,10.50
2019-03-04T00:31:33.578Z,10.60
2019-03-04T00:34:40.204Z,10.40
2019-03-04T00:37:45.333Z,10.50
2019-03-04T00:40:49.732Z,10.50
2019-03-04T00:43:54.062Z,10.50
2019-03-04T00:46:59.942Z,10.50
2019-03-04T00:50:05.472Z,10.40
2019-03-04T00:53:09.773Z,10.40
2019-03-04T00:56:14.546Z,10.40
2019-03-04T00:59:19.282Z,10.40
2019-03-04T01:02:23.617Z,10.40
2019-03-04T01:05:27.935Z,10.50
2019-03-04T01:08:32.259Z,10.40
2019-03-04T01:11:36.621Z,10.50
2019-03-04T01:14:40.955Z,10.50
2019-03-04T01:17:45.378Z,10.60
2019-03-04T01:20:49.723Z,10.60
2019-03-04T01:23:54.214Z,10.70
2019-03-04T01:27:02.351Z,10.80
2019-03-04T01:30:08.266Z,10.90
2019-03-04T01:33:13.987Z,10.90
2019-03-04T01:36:19.066Z,10.80
2019-03-04T01:39:23.350Z,10.80
2019-03-04T01:42:28.319Z,10.80
2019-03-04T01:45:32.661Z,10.90
2019-03-04T01:48:36.928Z,10.80
2019-03-04T01:51:41.346Z,10.70
2019-03-04T01:54:46.774Z,10.70
2019-03-04T01:57:51.245Z,10.70
2019-03-04T02:00:55.915Z,10.60
2019-03-04T02:04:01.911Z,10.60
2019-03-04T02:07:06.529Z,10.60
2019-03-04T02:10:13.461Z,10.50
2019-03-04T02:13:17.769Z,10.40
2019-03-04T02:16:23.792Z,10.40
2019-03-04T02:19:28.109Z,10.30
2019-03-04T02:22:34.277Z,10.30
2019-03-04T02:26:14.127Z,10.30
2019-03-04T02:29:18.430Z,10.20
2019-03-04T02:32:23.147Z,10.20
2019-03-04T02:35:28.253Z,10.20
2019-03-04T02:38:32.643Z,10.10
2019-03-04T02:41:37.525Z,10.20
2019-03-04T02:44:41.805Z,10.10
2019-03-04T02:47:46.307Z,10.00
2019-03-04T02:50:50.693Z,10.00
2019-03-04T02:53:55.011Z,10.10
2019-03-04T02:56:59.375Z,10.10
2019-03-04T03:00:03.858Z,10.00
2019-03-04T03:03:08.237Z,10.10
2019-03-04T03:06:13.828Z,10.10
2019-03-04T03:09:18.236Z,10.10
2019-03-04T03:12:22.555Z,10.10
2019-03-04T03:15:27.964Z,10.00
2019-03-04T03:18:32.282Z,10.10
2019-03-04T03:21:36.716Z,10.00
2019-03-04T03:24:41.416Z,10.00
2019-03-04T03:27:45.771Z,10.10
2019-03-04T03:30:50.501Z,9.90
2019-03-04T03:33:55.263Z,10.00
2019-03-04T03:36:59.667Z,9.90
2019-03-04T03:40:04.236Z,10.00
2019-03-04T03:43:08.552Z,10.00
2019-03-04T03:46:13.054Z,9.90
2019-03-04T03:49:17.377Z,9.90
2019-03-04T03:52:21.739Z,9.80
2019-03-04T03:55:26.069Z,9.80
2019-03-04T03:58:30.701Z,9.90
2019-03-04T04:01:35.170Z,9.90
2019-03-04T04:04:39.910Z,9.90
2019-03-04T04:07:44.352Z,10.00
2019-03-04T04:10:49.042Z,9.90
2019-03-04T04:13:53.361Z,9.90
2019-03-04T04:16:57.709Z,9.90
2019-03-04T04:20:02.073Z,9.90
2019-03-04T04:23:06.575Z,10.00
2019-03-04T04:26:23.763Z,9.90
2019-03-04T04:29:28.083Z,10.00
2019-03-04T04:32:33.085Z,10.10
2019-03-04T04:35:37.747Z,10.10
2019-03-04T04:38:42.376Z,10.20
2019-03-04T04:41:46.673Z,10.10
2019-03-04T04:44:51.062Z,10.20
2019-03-04T04:47:56.582Z,10.20
2019-03-04T04:51:01.330Z,10.10
2019-03-04T04:54:05.984Z,10.20
2019-03-04T04:57:10.413Z,10.10
2019-03-04T05:00:15.697Z,10.10
2019-03-04T05:03:20.463Z,10.10
2019-03-04T05:06:24.908Z,10.20
2019-03-04T05:09:29.318Z,10.20
2019-03-04T05:12:33.792Z,10.10
2019-03-04T05:15:38.457Z,10.20
2019-03-04T05:18:42.760Z,10.20
2019-03-04T05:21:47.086Z,10.30
2019-03-04T05:24:52.533Z,10.50
2019-03-04T05:27:57.201Z,10.60
2019-03-04T05:31:01.554Z,10.60
2019-03-04T05:34:06.286Z,10.70
2019-03-04T05:37:10.584Z,10.80
2019-03-04T05:40:16.494Z,10.80
2019-03-04T05:43:20.745Z,11.00
2019-03-04T05:46:25.394Z,10.90
2019-03-04T05:49:29.812Z,11.00
2019-03-04T05:52:34.136Z,11.10
2019-03-04T05:55:38.840Z,11.20
2019-03-04T05:58:43.255Z,11.20
2019-03-04T06:02:06.432Z,11.30
2019-03-04T06:05:11.085Z,11.20
2019-03-04T06:08:17.834Z,11.40
2019-03-04T06:11:22.712Z,11.30
2019-03-04T06:14:27.327Z,11.30
2019-03-04T06:17:32.108Z,11.30
2019-03-04T06:20:36.502Z,11.30
2019-03-04T06:23:40.841Z,11.30
2019-03-04T06:26:45.280Z,11.40
2019-03-04T06:29:49.581Z,11.40
2019-03-04T06:32:54.987Z,11.40
2019-03-04T06:35:59.342Z,11.50
2019-03-04T06:39:05.687Z,11.50
2019-03-04T06:42:11.228Z,11.60
2019-03-04T06:45:15.881Z,11.80
2019-03-04T06:48:20.229Z,11.70
2019-03-04T06:51:31.728Z,11.80
2019-03-04T06:55:01.955Z,11.90
2019-03-04T06:58:07.438Z,11.80
2019-03-04T07:01:19.661Z,12.00
2019-03-04T07:04:29.673Z,12.10
2019-03-04T07:07:33.966Z,12.10
2019-03-04T07:10:38.247Z,12.20
2019-03-04T07:13:43.027Z,12.40
2019-03-04T07:16:49.010Z,12.50
2019-03-04T07:20:04.927Z,12.60
2019-03-04T07:23:09.353Z,12.70
2019-03-04T07:26:14.905Z,12.90
2019-03-04T07:29:19.249Z,12.90
2019-03-04T07:32:23.603Z,13.00
2019-03-04T07:35:29.815Z,13.00
2019-03-04T07:38:44.506Z,13.20
2019-03-04T07:41:53.768Z,13.30
2019-03-04T07:44:58.183Z,13.60
2019-03-04T07:48:02.557Z,13.70
2019-03-04T07:51:12.519Z,13.80
2019-03-04T07:54:17.164Z,13.80
2019-03-04T07:57:21.486Z,14.00
2019-03-04T08:00:25.833Z,14.10
2019-03-04T08:03:30.338Z,14.00
2019-03-04T08:06:34.653Z,14.00
2019-03-04T08:10:15.564Z,13.90
2019-03-04T08:13:26.382Z,13.80
2019-03-04T08:16:30.787Z,13.70
2019-03-04T08:19:35.219Z,13.50
2019-03-04T08:22:39.578Z,13.50
2019-03-04T08:25:44.267Z,13.50
2019-03-04T08:29:01.281Z,13.50
2019-03-04T08:32:05.913Z,13.40
2019-03-04T08:35:10.403Z,13.50
2019-03-04T08:38:14.647Z,13.80
2019-03-04T08:41:19.762Z,13.90
2019-03-04T08:44:24.479Z,14.30
2019-03-04T08:47:30.566Z,15.00
2019-03-04T08:50:36.369Z,15.70
2019-03-04T08:53:59.810Z,16.20
2019-03-04T08:57:04.506Z,16.40
2019-03-04T09:00:12.883Z,16.50
2019-03-04T09:03:18.461Z,16.80
2019-03-04T09:06:22.845Z,17.10
2019-03-04T09:09:27.154Z,17.40
2019-03-04T09:12:31.539Z,17.70
2019-03-04T09:15:35.951Z,18.10
2019-03-04T09:18:40.337Z,18.50
2019-03-04T09:21:44.712Z,19.00
2019-03-04T09:24:49.071Z,19.20
2019-03-04T09:27:53.867Z,19.30
2019-03-04T09:31:00.026Z,19.40
2019-03-04T09:34:04.335Z,19.40
2019-03-04T09:37:09.196Z,19.20
2019-03-04T09:40:15.615Z,19.00
2019-03-04T09:43:20.343Z,18.80
2019-03-04T09:46:25.073Z,18.40
2019-03-04T09:49:29.490Z,18.40
2019-03-04T09:52:34.330Z,18.40
2019-03-04T09:55:39.863Z,18.60
2019-03-04T09:58:44.578Z,18.90
2019-03-04T10:01:53.536Z,19.30
2019-03-04T10:05:37.795Z,19.80
2019-03-04T10:09:14.232Z,19.90
2019-03-04T10:13:03.121Z,19.50
2019-03-04T10:16:43.129Z,19.10
2019-03-04T10:20:11.992Z,18.70
2019-03-04T10:23:29.201Z,18.40
2019-03-04T10:27:23.688Z,18.10
2019-03-04T10:31:05.308Z,17.90
2019-03-04T10:34:46.769Z,17.50
2019-03-04T10:38:34.137Z,17.20
2019-03-04T10:42:17.290Z,16.90
2019-03-04T10:46:17.410Z,16.60
2019-03-04T10:49:21.676Z,16.40
2019-03-04T10:52:26.060Z,16.20
2019-03-04T10:55:41.267Z,16.10
2019-03-04T10:58:36.969Z,16.10
2019-03-04T11:01:43.109Z,16.10
2019-03-04T11:04:47.446Z,16.20
2019-03-04T11:07:54.408Z,16.60
2019-03-04T11:10:59.125Z,17.00
2019-03-04T11:14:03.948Z,17.40
2019-03-04T11:17:10.425Z,18.00
2019-03-04T11:20:15.087Z,18.50
2019-03-04T11:23:39.343Z,19.20
2019-03-04T11:26:43.797Z,19.60
2019-03-04T11:29:48.454Z,20.20
2019-03-04T11:32:52.841Z,20.40
2019-03-04T11:35:57.442Z,20.30
2019-03-04T11:39:35.981Z,19.80
2019-03-04T11:42:40.708Z,19.50
2019-03-04T11:45:44.977Z,18.90
2019-03-04T11:48:49.296Z,18.60
2019-03-04T11:51:53.994Z,18.40
2019-03-04T11:54:58.389Z,18.20
2019-03-04T11:58:02.822Z,18.50
2019-03-04T12:01:17.301Z,18.40
2019-03-04T12:04:21.623Z,18.50
2019-03-04T12:07:25.936Z,18.40
2019-03-04T12:10:30.262Z,18.40
2019-03-04T12:13:34.923Z,18.30
2019-03-04T12:16:39.653Z,18.20
2019-03-04T12:19:44.273Z,17.90
2019-03-04T12:22:48.982Z,17.70
2019-03-04T12:25:54.917Z,17.50
2019-03-04T12:29:00.782Z,17.20
2019-03-04T12:32:12.233Z,17.00
2019-03-04T12:35:17.070Z,17.00
2019-03-04T12:38:22.128Z,17.10
2019-03-04T12:41:26.506Z,17.00
2019-03-04T12:44:33.061Z,17.00
2019-03-04T12:47:39.204Z,16.80
2019-03-04T12:50:43.528Z,16.80
2019-03-04T12:53:47.873Z,16.60
2019-03-04T12:56:52.224Z,16.50
2019-03-04T12:59:56.533Z,16.30
2019-03-04T13:03:00.978Z,16.20
2019-03-04T13:06:09.331Z,16.10
2019-03-04T13:09:14.968Z,15.90
2019-03-04T13:12:19.477Z,15.70
2019-03-04T13:15:25.730Z,15.50
2019-03-04T13:18:30.038Z,15.30
2019-03-04T13:21:35.147Z,15.20
2019-03-04T13:24:39.470Z,15.10
2019-03-04T13:27:44.057Z,15.10
2019-03-04T13:30:48.855Z,15.00
2019-03-04T13:33:53.899Z,14.90
2019-03-04T13:36:58.651Z,14.80
2019-03-04T13:40:03.756Z,14.70
2019-03-04T13:43:08.253Z,14.70
2019-03-04T13:46:12.611Z,14.70
2019-03-04T13:49:16.930Z,14.70
2019-03-04T13:52:23.313Z,14.60
2019-03-04T13:55:27.877Z,14.50
2019-03-04T13:58:32.546Z,14.50
2019-03-04T14:01:36.952Z,14.40
2019-03-04T14:04:41.572Z,14.30
2019-03-04T14:07:46.325Z,14.20
2019-03-04T14:10:50.606Z,14.10
2019-03-04T14:13:55.413Z,13.90
2019-03-04T14:16:59.773Z,13.90
2019-03-04T14:20:04.948Z,13.80
2019-03-04T14:23:09.258Z,13.70
2019-03-04T14:26:13.967Z,13.70
2019-03-04T14:29:18.304Z,13.50
2019-03-04T14:32:23.399Z,13.50
2019-03-04T14:35:27.686Z,13.40
2019-03-04T14:38:32.038Z,13.40
2019-03-04T14:41:37.773Z,13.50
2019-03-04T14:44:42.395Z,13.40
2019-03-04T14:47:46.929Z,13.30
2019-03-04T14:50:51.283Z,13.20
2019-03-04T14:53:55.660Z,13.20
2019-03-04T14:57:00.008Z,13.20
2019-03-04T15:00:05.935Z,13.10
2019-03-04T15:03:19.782Z,13.10
2019-03-04T15:06:18.210Z,12.80
2019-03-04T15:09:22.621Z,12.70
2019-03-04T15:12:27.170Z,12.80
2019-03-04T15:15:31.963Z,12.60
2019-03-04T15:18:37.777Z,12.60
2019-03-04T15:21:42.580Z,12.60
2019-03-04T15:24:46.867Z,12.40
2019-03-04T15:27:51.235Z,12.40
2019-03-04T15:30:57.427Z,12.40
2019-03-04T15:34:02.416Z,12.20
2019-03-04T15:37:06.781Z,12.30
2019-03-04T15:40:14.956Z,12.20
2019-03-04T15:43:21.203Z,12.20
2019-03-04T15:46:25.552Z,12.20
2019-03-04T15:49:30.015Z,12.20
2019-03-04T15:52:34.396Z,12.10
2019-03-04T15:55:38.857Z,12.30
2019-03-04T15:58:43.563Z,12.30
2019-03-04T16:01:48.134Z,12.30
2019-03-04T16:04:52.461Z,12.20
2019-03-04T16:08:06.742Z,12.30
2019-03-04T16:11:02.951Z,12.30
2019-03-04T16:14:07.315Z,12.20
2019-03-04T16:17:11.617Z,12.10
2019-03-04T16:20:17.352Z,12.10
2019-03-04T16:23:21.766Z,12.10
2019-03-04T16:26:27.645Z,12.00
2019-03-04T16:29:37.088Z,11.80
2019-03-04T16:32:39.148Z,11.80
2019-03-04T16:35:43.487Z,11.60
2019-03-04T16:38:47.832Z,11.30
2019-03-04T16:41:52.665Z,11.10
2019-03-04T16:44:58.459Z,10.90
2019-03-04T16:48:03.201Z,10.70
2019-03-04T16:51:07.599Z,10.40
2019-03-04T16:54:12.363Z,10.20
2019-03-04T16:57:16.680Z,10.00
2019-03-04T17:00:21.637Z,9.80
2019-03-04T17:03:26.323Z,9.60
2019-03-04T17:06:30.670Z,9.50
2019-03-04T17:09:35.918Z,9.50
2019-03-04T17:12:43.198Z,9.50
2019-03-04T17:15:47.566Z,9.40
2019-03-04T17:18:52.271Z,9.50
2019-03-04T17:21:56.681Z,9.40
2019-03-04T17:25:00.989Z,9.60
2019-03-04T17:28:05.706Z,9.60
2019-03-04T17:31:13.015Z,9.60
2019-03-04T17:34:36.490Z,9.50
2019-03-04T17:37:40.954Z,9.40
2019-03-04T17:40:48.370Z,9.40
2019-03-04T17:43:52.879Z,9.20
2019-03-04T17:46:57.181Z,9.00
2019-03-04T17:50:02.826Z,9.00
2019-03-04T17:53:09.094Z,8.90
2019-03-04T17:56:13.514Z,9.00
2019-03-04T17:59:18.212Z,8.90
2019-03-04T18:02:22.636Z,8.90
2019-03-04T18:05:27.271Z,8.90
2019-03-04T18:08:32.012Z,8.90
2019-03-04T18:11:36.792Z,8.80
2019-03-04T18:14:41.641Z,8.90
2019-03-04T18:17:45.978Z,8.90
2019-03-04T18:20:51.774Z,8.80
2019-03-04T18:23:58.442Z,9.00
2019-03-04T18:27:08.310Z,9.00
2019-03-04T18:30:53.452Z,9.00
2019-03-04T18:34:23.409Z,9.00
2019-03-04T18:38:14.886Z,8.70
2019-03-04T18:42:00.247Z,8.60
2019-03-04T18:45:42.823Z,8.10
2019-03-04T18:49:01.530Z,7.80
2019-03-04T18:52:07.891Z,7.50
2019-03-04T18:55:12.346Z,7.10
2019-03-04T18:58:16.752Z,7.10
2019-03-04T19:01:21.088Z,6.80
2019-03-04T19:04:25.516Z,6.70
2019-03-04T19:07:30.119Z,6.60
2019-03-04T19:10:34.511Z,6.50
2019-03-04T19:13:57.912Z,6.50
2019-03-04T19:17:02.319Z,6.50
2019-03-04T19:20:09.005Z,6.30
2019-03-04T19:23:13.806Z,6.30
2019-03-04T19:26:18.727Z,6.30
2019-03-04T19:29:23.092Z,6.30
2019-03-04T19:32:27.407Z,6.20
2019-03-04T19:35:33.287Z,6.20
2019-03-04T19:38:37.639Z,6.20
2019-03-04T19:41:42.030Z,6.20
2019-03-04T19:44:46.326Z,6.10
2019-03-04T19:47:53.155Z,6.10
2019-03-04T19:50:59.827Z,6.00
2019-03-04T19:54:04.662Z,5.90
2019-03-04T19:57:09.085Z,5.90
2019-03-04T20:00:17.512Z,5.80
2019-03-04T20:03:22.057Z,5.90
2019-03-04T20:06:26.400Z,5.80
2019-03-04T20:09:30.718Z,5.70
2019-03-04T20:12:35.076Z,5.70
2019-03-04T20:15:39.642Z,5.70
2019-03-04T20:18:44.071Z,5.70
2019-03-04T20:21:48.851Z,5.60
2019-03-04T20:24:53.644Z,5.50
2019-03-04T20:27:58.394Z,5.50
2019-03-04T20:31:02.931Z,5.50
2019-03-04T20:34:07.317Z,5.50
2019-03-04T20:37:11.653Z,5.30
2019-03-04T20:40:16.380Z,5.50
2019-03-04T20:43:20.707Z,5.40
2019-03-04T20:46:26.363Z,5.40
2019-03-04T20:49:30.684Z,5.30
2019-03-04T20:52:35.043Z,5.30
2019-03-04T20:55:39.400Z,5.40
2019-03-04T20:58:43.727Z,5.20
2019-03-04T21:01:48.176Z,5.20
2019-03-04T21:04:52.690Z,5.20
2019-03-04T21:08:00.627Z,5.20
2019-03-04T21:11:05.222Z,5.10
2019-03-04T21:14:09.580Z,5.10
2019-03-04T21:17:16.254Z,5.20
2019-03-04T21:20:20.838Z,5.10
2019-03-04T21:23:26.382Z,5.10
2019-03-04T21:26:40.469Z,5.20
2019-03-04T21:30:26.148Z,5.20
2019-03-04T21:34:06.547Z,5.10
2019-03-04T21:37:21.245Z,5.00
2019-03-04T21:41:00.620Z,5.00
2019-03-04T21:44:41.901Z,5.00
2019-03-04T21:47:56.284Z,5.00
2019-03-04T21:51:38.463Z,5.00
2019-03-04T21:54:41.779Z,5.00
2019-03-04T21:57:52.612Z,5.00
2019-03-04T22:01:01.661Z,5.00
2019-03-04T22:04:06.405Z,5.00
2019-03-04T22:07:11.426Z,5.00
2019-03-04T22:10:16.064Z,4.90
2019-03-04T22:13:20.771Z,4.90
2019-03-04T22:16:25.419Z,5.00
2019-03-04T22:19:30.081Z,5.00
2019-03-04T22:22:34.483Z,5.00
2019-03-04T22:25:38.793Z,5.00
2019-03-04T22:28:43.187Z,5.00
2019-03-04T22:31:47.646Z,5.00
2019-03-04T22:34:53.828Z,5.00
2019-03-04T22:37:59.005Z,5.00
2019-03-04T22:41:03.342Z,5.10
2019-03-04T22:44:08.505Z,5.10
2019-03-04T22:47:18.950Z,5.00
2019-03-04T22:50:23.502Z,5.10
2019-03-04T22:53:30.112Z,5.10
2019-03-04T22:56:34.839Z,5.00
2019-03-04T22:59:39.184Z,5.10
2019-03-04T23:02:54.534Z,5.20
2019-03-04T23:05:50.029Z,5.20
2019-03-04T23:08:54.435Z,5.10
2019-03-04T23:12:13.925Z,5.10
2019-03-04T23:15:22.282Z,5.10
2019-03-04T23:18:45.113Z,5.20
2019-03-04T23:21:49.451Z,5.10
2019-03-04T23:24:53.775Z,5.20
2019-03-04T23:27:58.126Z,5.30
2019-03-04T23:31:02.748Z,5.20
2019-03-04T23:34:07.497Z,5.30
2019-03-04T23:37:12.270Z,5.20
2019-03-04T23:40:16.723Z,5.20
2019-03-04T23:43:21.129Z,5.10
2019-03-04T23:46:26.026Z,5.20
2019-03-04T23:49:30.432Z,5.10
2019-03-04T23:52:34.816Z,5.20
2019-03-04T23:55:39.594Z,5.10
2019-03-04T23:58:44.261Z,5.10
